createdAt,value
2023-06-25T00:00:29.201Z,82.38
2023-06-25T00:01:02.130Z,81.92
2023-06-25T00:01:34.144Z,82.30
2023-06-25T00:02:06.541Z,82.46
2023-06-25T00:02:38.525Z,83.07
2023-06-25T00:03:10.667Z,82.45
2023-06-25T00:03:42.782Z,82.67
2023-06-25T00:04:14.973Z,82.63
2023-06-25T00:04:46.878Z,82.52
2023-06-25T00:05:18.867Z,82.96
2023-06-25T00:05:51.099Z,83.20
2023-06-25T00:06:23.373Z,82.52
2023-06-25T00:06:55.472Z,82.83
2023-06-25T00:07:27.500Z,82.79
2023-06-25T00:07:59.546Z,82.77
2023-06-25T00:08:31.443Z,83.47
2023-06-25T00:09:04.196Z,83.05
2023-06-25T00:09:36.156Z,82.90
2023-06-25T00:10:09.128Z,83.19
2023-06-25T00:10:41.312Z,83.43
2023-06-25T00:11:13.472Z,83.61
2023-06-25T00:11:45.411Z,83.60
2023-06-25T00:12:17.354Z,83.79
2023-06-25T00:12:49.322Z,84.08
2023-06-25T00:13:21.236Z,83.40
2023-06-25T00:13:54.980Z,84.16
2023-06-25T00:14:26.904Z,83.93
2023-06-25T00:14:58.850Z,84.05
2023-06-25T00:15:30.775Z,84.09
2023-06-25T00:16:02.716Z,83.84
2023-06-25T00:16:34.716Z,84.04
2023-06-25T00:17:06.833Z,84.35
2023-06-25T00:17:40.187Z,83.99
2023-06-25T00:18:12.142Z,84.20
2023-06-25T00:18:43.996Z,84.50
2023-06-25T00:19:18.602Z,83.95
2023-06-25T00:19:50.517Z,84.31
2023-06-25T00:20:25.237Z,84.58
2023-06-25T00:20:57.172Z,84.63
2023-06-25T00:21:29.584Z,84.97
2023-06-25T00:22:01.793Z,84.53
2023-06-25T00:22:33.765Z,84.66
2023-06-25T00:23:07.888Z,84.91
2023-06-25T00:23:40.352Z,84.65
2023-06-25T00:24:12.573Z,84.89
2023-06-25T00:24:44.499Z,84.57
2023-06-25T00:25:17.662Z,85.18
2023-06-25T00:25:49.572Z,85.14
2023-06-25T00:26:21.492Z,85.14
2023-06-25T00:26:53.386Z,85.43
2023-06-25T00:27:25.272Z,85.23
2023-06-25T00:27:59.286Z,85.06
2023-06-25T00:28:31.239Z,84.67
2023-06-25T00:29:04.525Z,85.54
2023-06-25T00:29:36.589Z,84.85
2023-06-25T00:30:09.079Z,85.49
2023-06-25T00:30:41.013Z,84.65
2023-06-25T00:31:16.252Z,85.12
2023-06-25T00:31:48.177Z,85.75
2023-06-25T00:32:20.289Z,85.16
2023-06-25T00:32:55.911Z,85.55
2023-06-25T00:33:28.133Z,85.18
2023-06-25T00:34:00.039Z,85.54
2023-06-25T00:34:31.951Z,85.05
2023-06-25T00:35:04.248Z,85.97
2023-06-25T00:35:51.394Z,85.35
2023-06-25T00:36:23.796Z,85.82
2023-06-25T00:36:55.752Z,85.59
2023-06-25T00:37:27.638Z,85.88
2023-06-25T00:38:02.624Z,85.27
2023-06-25T00:38:40.102Z,85.99
2023-06-25T00:39:12.769Z,85.92
2023-06-25T00:39:48.475Z,85.71
2023-06-25T00:40:20.449Z,85.64
2023-06-25T00:40:52.566Z,85.82
2023-06-25T00:41:28.223Z,85.88
2023-06-25T00:42:02.312Z,85.77
2023-06-25T00:42:42.541Z,86.16
2023-06-25T00:43:17.281Z,85.91
2023-06-25T00:43:49.195Z,85.72
2023-06-25T00:44:21.224Z,85.66
2023-06-25T00:44:53.219Z,85.70
2023-06-25T00:45:28.471Z,85.92
2023-06-25T00:46:01.406Z,85.65
2023-06-25T00:46:33.611Z,85.46
2023-06-25T00:47:05.669Z,85.73
2023-06-25T00:47:39.185Z,86.19
2023-06-25T00:48:11.172Z,86.00
2023-06-25T00:48:47.852Z,85.97
2023-06-25T00:49:20.163Z,86.21
2023-06-25T00:49:52.162Z,86.35
2023-06-25T00:50:24.864Z,86.44
2023-06-25T00:51:02.421Z,86.03
2023-06-25T00:51:38.351Z,86.09
2023-06-25T00:52:12.868Z,86.60
2023-06-25T00:52:44.887Z,86.32
2023-06-25T00:53:17.674Z,86.48
2023-06-25T00:53:49.538Z,86.38
2023-06-25T00:54:21.841Z,86.22
2023-06-25T00:54:53.717Z,86.28
2023-06-25T00:55:26.808Z,86.67
2023-06-25T00:55:58.773Z,86.37
2023-06-25T00:56:30.807Z,86.54
2023-06-25T00:57:05.265Z,86.34
2023-06-25T00:57:37.271Z,86.89
2023-06-25T00:58:09.271Z,86.32
2023-06-25T00:58:42.556Z,86.69
2023-06-25T00:59:14.840Z,86.72
2023-06-25T00:59:49.467Z,86.88
2023-06-25T01:00:21.461Z,86.63
2023-06-25T01:00:58.079Z,87.01
2023-06-25T01:01:46.460Z,86.90
2023-06-25T01:02:45.626Z,87.53
2023-06-25T01:03:29.951Z,87.27
2023-06-25T01:04:11.147Z,87.41
2023-06-25T01:04:54.489Z,87.15
2023-06-25T01:05:32.726Z,86.74
2023-06-25T01:06:30.494Z,86.63
2023-06-25T01:07:12.269Z,86.95
2023-06-25T01:07:46.403Z,87.27
2023-06-25T01:08:18.900Z,87.24
2023-06-25T01:08:52.309Z,87.25
2023-06-25T01:09:26.626Z,87.17
2023-06-25T01:09:59.144Z,87.18
2023-06-25T01:10:31.123Z,87.01
2023-06-25T01:11:04.515Z,87.00
2023-06-25T01:11:38.819Z,87.17
2023-06-25T01:12:10.697Z,87.76
2023-06-25T01:12:45.654Z,87.39
2023-06-25T01:13:17.538Z,87.26
2023-06-25T01:13:49.611Z,87.48
2023-06-25T01:14:23.165Z,87.34
2023-06-25T01:14:56.033Z,87.42
2023-06-25T01:15:27.961Z,87.05
2023-06-25T01:15:59.858Z,87.16
2023-06-25T01:16:32.464Z,87.52
2023-06-25T01:17:06.752Z,87.26
2023-06-25T01:17:43.251Z,87.36
2023-06-25T01:18:15.934Z,87.59
2023-06-25T01:19:02.639Z,87.31
2023-06-25T01:19:36.564Z,87.66
2023-06-25T01:20:12.998Z,87.46
2023-06-25T01:20:45.228Z,87.49
2023-06-25T01:21:19.849Z,87.29
2023-06-25T01:21:53.383Z,86.99
2023-06-25T01:22:33.057Z,87.17
2023-06-25T01:23:05.135Z,86.98
2023-06-25T01:23:38.011Z,87.09
2023-06-25T01:24:10.209Z,87.01
2023-06-25T01:24:45.889Z,87.24
2023-06-25T01:25:18.704Z,87.53
2023-06-25T01:25:51.148Z,87.56
2023-06-25T01:26:23.138Z,87.58
2023-06-25T01:27:00.949Z,87.66
2023-06-25T01:27:35.327Z,87.11
2023-06-25T01:28:07.321Z,87.79
2023-06-25T01:28:39.908Z,87.39
2023-06-25T01:29:12.310Z,87.16
2023-06-25T01:29:45.346Z,87.73
2023-06-25T01:30:19.082Z,87.53
2023-06-25T01:30:53.412Z,87.86
2023-06-25T01:31:32.924Z,87.67
2023-06-25T01:32:08.293Z,87.45
2023-06-25T01:32:45.615Z,87.83
2023-06-25T01:33:20.444Z,87.47
2023-06-25T01:33:52.694Z,87.74
2023-06-25T01:34:25.001Z,87.79
2023-06-25T01:34:57.003Z,88.41
2023-06-25T01:35:28.954Z,87.72
2023-06-25T01:36:00.837Z,88.06
2023-06-25T01:36:33.435Z,88.46
2023-06-25T01:37:07.515Z,87.76
2023-06-25T01:37:39.540Z,88.35
2023-06-25T01:38:11.836Z,88.02
2023-06-25T01:38:43.746Z,87.99
2023-06-25T01:39:17.393Z,88.33
2023-06-25T01:39:52.038Z,88.30
2023-06-25T01:40:24.220Z,88.10
2023-06-25T01:40:56.157Z,88.35
2023-06-25T01:41:28.235Z,88.05
2023-06-25T01:42:00.271Z,88.28
2023-06-25T01:42:32.151Z,88.61
2023-06-25T01:43:04.042Z,88.35
2023-06-25T01:43:35.994Z,87.88
2023-06-25T01:44:07.943Z,88.02
2023-06-25T01:44:40.428Z,87.91
2023-06-25T01:45:13.016Z,88.33
2023-06-25T01:45:44.966Z,88.29
2023-06-25T01:46:16.990Z,88.18
2023-06-25T01:46:48.936Z,88.62
2023-06-25T01:47:20.933Z,88.24
2023-06-25T01:47:52.941Z,88.76
2023-06-25T01:48:24.878Z,88.84
2023-06-25T01:48:56.808Z,88.65
2023-06-25T01:49:32.244Z,89.31
2023-06-25T01:50:06.202Z,89.27
2023-06-25T01:50:38.114Z,88.84
2023-06-25T01:51:10.063Z,89.30
2023-06-25T01:51:41.999Z,89.15
2023-06-25T01:52:14.381Z,89.30
2023-06-25T01:52:46.323Z,89.34
2023-06-25T01:53:19.229Z,89.22
2023-06-25T01:53:51.324Z,89.29
2023-06-25T01:54:23.271Z,89.88
2023-06-25T01:54:55.166Z,89.23
2023-06-25T01:55:27.142Z,89.20
2023-06-25T01:55:59.061Z,89.20
2023-06-25T01:56:30.988Z,89.66
2023-06-25T01:57:03.728Z,89.48
2023-06-25T01:57:35.674Z,89.46
2023-06-25T01:58:07.576Z,90.11
2023-06-25T01:58:39.503Z,90.40
2023-06-25T01:59:11.809Z,90.43
2023-06-25T01:59:43.749Z,90.51
2023-06-25T02:00:16.457Z,90.46
2023-06-25T02:00:48.948Z,90.41
2023-06-25T02:01:22.210Z,90.51
2023-06-25T02:01:55.032Z,90.59
2023-06-25T02:02:27.289Z,90.30
2023-06-25T02:02:59.335Z,90.38
2023-06-25T02:03:31.361Z,90.64
2023-06-25T02:04:03.377Z,90.30
2023-06-25T02:04:35.546Z,90.19
2023-06-25T02:05:07.771Z,90.03
2023-06-25T02:05:39.752Z,90.39
2023-06-25T02:06:11.706Z,89.90
2023-06-25T02:06:43.729Z,90.39
2023-06-25T02:07:15.703Z,90.22
2023-06-25T02:07:47.696Z,90.62
2023-06-25T02:08:19.975Z,89.96
2023-06-25T02:08:51.959Z,90.12
2023-06-25T02:09:23.984Z,90.37
2023-06-25T02:09:55.982Z,90.35
2023-06-25T02:10:29.971Z,90.23
2023-06-25T02:11:01.911Z,90.07
2023-06-25T02:11:33.824Z,90.44
2023-06-25T02:12:06.152Z,90.10
2023-06-25T02:12:38.081Z,90.19
2023-06-25T02:13:10.016Z,90.69
2023-06-25T02:13:42.087Z,90.57
2023-06-25T02:14:14.079Z,90.02
2023-06-25T02:14:45.967Z,90.45
2023-06-25T02:15:17.878Z,90.10
2023-06-25T02:15:49.860Z,89.91
2023-06-25T02:16:21.864Z,89.87
2023-06-25T02:16:53.825Z,90.02
2023-06-25T02:17:25.797Z,89.95
2023-06-25T02:17:58.000Z,89.98
2023-06-25T02:18:30.688Z,90.01
2023-06-25T02:19:02.598Z,90.41
2023-06-25T02:19:34.763Z,91.05
2023-06-25T02:20:07.643Z,90.83
2023-06-25T02:20:39.617Z,90.45
2023-06-25T02:21:11.831Z,90.71
2023-06-25T02:21:43.726Z,91.07
2023-06-25T02:22:15.670Z,90.45
2023-06-25T02:22:49.320Z,90.72
2023-06-25T02:23:21.315Z,90.90
2023-06-25T02:23:53.263Z,90.97
2023-06-25T02:24:25.358Z,90.87
2023-06-25T02:24:57.315Z,90.83
2023-06-25T02:25:29.315Z,90.68
2023-06-25T02:26:01.324Z,91.08
2023-06-25T02:26:33.374Z,90.93
2023-06-25T02:27:05.881Z,90.80
2023-06-25T02:27:37.823Z,90.58
2023-06-25T02:28:09.737Z,90.63
2023-06-25T02:28:41.824Z,90.67
2023-06-25T02:29:13.715Z,90.57
2023-06-25T02:29:45.635Z,91.01
2023-06-25T02:30:17.569Z,91.16
2023-06-25T02:30:49.527Z,90.87
2023-06-25T02:31:21.529Z,90.71
2023-06-25T02:31:53.652Z,90.88
2023-06-25T02:32:25.740Z,90.97
2023-06-25T02:32:57.777Z,91.08
2023-06-25T02:33:29.731Z,91.63
2023-06-25T02:34:01.635Z,91.20
2023-06-25T02:34:33.704Z,91.25
2023-06-25T02:35:05.940Z,91.50
2023-06-25T02:35:38.174Z,91.07
2023-06-25T02:36:10.237Z,91.83
2023-06-25T02:36:42.142Z,91.84
2023-06-25T02:37:16.355Z,91.80
2023-06-25T02:37:48.533Z,91.51
2023-06-25T02:38:20.478Z,92.04
2023-06-25T02:38:52.381Z,91.89
2023-06-25T02:39:24.407Z,92.08
2023-06-25T02:39:56.353Z,91.69
2023-06-25T02:40:31.206Z,91.98
2023-06-25T02:41:03.099Z,91.65
2023-06-25T02:41:35.085Z,91.64
2023-06-25T02:42:07.188Z,91.72
2023-06-25T02:42:39.659Z,92.03
2023-06-25T02:43:12.556Z,92.17
2023-06-25T02:43:44.487Z,92.46
2023-06-25T02:44:16.368Z,92.51
2023-06-25T02:44:48.286Z,92.35
2023-06-25T02:45:20.388Z,92.12
2023-06-25T02:45:52.376Z,92.66
2023-06-25T02:46:25.960Z,92.09
2023-06-25T02:46:57.904Z,91.89
2023-06-25T02:47:29.900Z,91.66
2023-06-25T02:48:01.933Z,92.11
2023-06-25T02:48:35.446Z,91.55
2023-06-25T02:49:07.570Z,91.90
2023-06-25T02:49:39.535Z,91.56
2023-06-25T02:50:11.540Z,91.83
2023-06-25T02:50:43.504Z,91.73
2023-06-25T02:51:15.429Z,91.81
2023-06-25T02:51:47.341Z,92.25
2023-06-25T02:52:19.312Z,92.21
2023-06-25T02:52:51.282Z,91.88
2023-06-25T02:53:23.237Z,91.86
2023-06-25T02:53:55.226Z,92.14
2023-06-25T02:54:27.248Z,92.20
2023-06-25T02:54:59.199Z,91.99
2023-06-25T02:55:31.249Z,92.28
2023-06-25T02:56:03.432Z,92.06
2023-06-25T02:56:35.329Z,92.08
2023-06-25T02:57:07.253Z,92.02
2023-06-25T02:57:39.223Z,92.64
2023-06-25T02:58:11.156Z,92.31
2023-06-25T02:58:43.049Z,92.41
2023-06-25T02:59:15.019Z,92.62
2023-06-25T02:59:46.965Z,92.25
2023-06-25T03:00:19.043Z,92.30
2023-06-25T03:00:51.260Z,92.27
2023-06-25T03:01:23.228Z,92.44
2023-06-25T03:01:55.194Z,92.03
2023-06-25T03:02:27.600Z,92.67
2023-06-25T03:02:59.707Z,92.35
2023-06-25T03:03:31.741Z,92.36
2023-06-25T03:04:03.763Z,92.39
2023-06-25T03:04:35.675Z,92.66
2023-06-25T03:05:07.944Z,92.36
2023-06-25T03:05:40.230Z,92.61
2023-06-25T03:06:12.556Z,92.45
2023-06-25T03:06:44.615Z,92.52
2023-06-25T03:07:16.542Z,92.11
2023-06-25T03:07:58.444Z,92.73
2023-06-25T03:08:30.409Z,92.46
2023-06-25T03:09:02.394Z,92.64
2023-06-25T03:09:34.338Z,92.73
2023-06-25T03:10:06.850Z,92.53
2023-06-25T03:10:41.541Z,92.96
2023-06-25T03:11:13.463Z,92.75
2023-06-25T03:11:45.412Z,92.67
2023-06-25T03:12:17.379Z,92.60
2023-06-25T03:12:49.357Z,92.53
2023-06-25T03:13:21.334Z,92.70
2023-06-25T03:13:53.367Z,92.44
2023-06-25T03:14:34.812Z,92.65
2023-06-25T03:15:08.128Z,92.64
2023-06-25T03:15:40.066Z,92.69
2023-06-25T03:16:11.997Z,92.72
2023-06-25T03:16:44.015Z,92.51
2023-06-25T03:17:16.060Z,92.47
2023-06-25T03:17:48.341Z,92.62
2023-06-25T03:18:20.278Z,92.95
2023-06-25T03:18:52.651Z,92.56
2023-06-25T03:19:24.618Z,92.45
2023-06-25T03:19:56.534Z,92.63
2023-06-25T03:20:28.477Z,92.49
2023-06-25T03:21:00.449Z,92.34
2023-06-25T03:21:32.379Z,92.28
2023-06-25T03:22:04.475Z,92.41
2023-06-25T03:22:36.580Z,92.48
2023-06-25T03:23:08.591Z,92.13
2023-06-25T03:23:40.740Z,92.46
2023-06-25T03:24:12.666Z,92.38
2023-06-25T03:24:44.595Z,92.41
2023-06-25T03:25:16.703Z,91.94
2023-06-25T03:25:48.611Z,91.92
2023-06-25T03:26:20.867Z,91.67
2023-06-25T03:26:52.883Z,91.88
2023-06-25T03:27:25.025Z,91.72
2023-06-25T03:27:57.020Z,91.83
2023-06-25T03:28:28.882Z,91.74
2023-06-25T03:29:00.845Z,91.60
2023-06-25T03:29:32.750Z,91.79
2023-06-25T03:30:07.995Z,91.93
2023-06-25T03:30:40.127Z,91.39
2023-06-25T03:31:12.152Z,91.19
2023-06-25T03:31:44.897Z,91.38
2023-06-25T03:32:16.911Z,91.33
2023-06-25T03:32:48.973Z,91.90
2023-06-25T03:33:21.078Z,91.24
2023-06-25T03:33:53.005Z,91.39
2023-06-25T03:34:24.928Z,91.40
2023-06-25T03:34:56.849Z,91.34
2023-06-25T03:35:28.761Z,91.91
2023-06-25T03:36:00.831Z,91.69
2023-06-25T03:36:33.143Z,91.68
2023-06-25T03:37:05.607Z,91.28
2023-06-25T03:37:37.559Z,91.69
2023-06-25T03:38:09.484Z,91.29
2023-06-25T03:38:41.444Z,91.46
2023-06-25T03:39:13.427Z,91.66
2023-06-25T03:39:45.410Z,91.00
2023-06-25T03:40:17.396Z,91.84
2023-06-25T03:40:49.490Z,91.70
2023-06-25T03:41:21.531Z,91.73
2023-06-25T03:41:53.404Z,92.17
2023-06-25T03:42:25.516Z,91.84
2023-06-25T03:42:57.462Z,91.39
2023-06-25T03:43:29.679Z,91.45
2023-06-25T03:44:01.774Z,91.10
2023-06-25T03:44:34.186Z,91.16
2023-06-25T03:45:06.924Z,90.94
2023-06-25T03:45:39.069Z,91.12
2023-06-25T03:46:11.176Z,91.51
2023-06-25T03:46:43.109Z,91.60
2023-06-25T03:47:15.131Z,91.79
2023-06-25T03:47:47.168Z,91.76
2023-06-25T03:48:19.300Z,91.20
2023-06-25T03:48:51.433Z,91.57
2023-06-25T03:49:23.431Z,91.62
2023-06-25T03:49:55.374Z,91.97
2023-06-25T03:50:27.435Z,91.88
2023-06-25T03:50:59.679Z,92.40
2023-06-25T03:51:31.605Z,92.13
2023-06-25T03:52:03.737Z,92.84
2023-06-25T03:52:35.730Z,92.32
2023-06-25T03:53:07.641Z,92.33
2023-06-25T03:53:40.044Z,92.50
2023-06-25T03:54:11.960Z,92.65
2023-06-25T03:54:43.934Z,92.59
2023-06-25T03:55:15.910Z,93.04
2023-06-25T03:55:47.887Z,92.79
2023-06-25T03:56:19.917Z,93.01
2023-06-25T03:56:51.867Z,92.88
2023-06-25T03:57:24.466Z,92.82
2023-06-25T03:57:58.969Z,92.88
2023-06-25T03:58:30.911Z,92.56
2023-06-25T03:59:03.104Z,92.69
2023-06-25T03:59:35.153Z,92.62
2023-06-25T04:00:07.788Z,92.59
2023-06-25T04:00:40.387Z,92.78
2023-06-25T04:01:12.333Z,92.81
2023-06-25T04:01:44.390Z,92.67
2023-06-25T04:02:16.535Z,92.81
2023-06-25T04:02:48.608Z,92.84
2023-06-25T04:03:20.580Z,93.25
2023-06-25T04:03:52.663Z,92.93
2023-06-25T04:04:24.762Z,92.99
2023-06-25T04:04:56.871Z,93.25
2023-06-25T04:05:28.895Z,93.38
2023-06-25T04:06:01.150Z,93.20
2023-06-25T04:06:33.138Z,93.12
2023-06-25T04:07:05.479Z,93.01
2023-06-25T04:07:37.456Z,92.87
2023-06-25T04:08:09.404Z,93.27
2023-06-25T04:08:41.700Z,93.24
2023-06-25T04:09:13.628Z,93.18
2023-06-25T04:09:45.544Z,93.38
2023-06-25T04:10:17.530Z,93.37
2023-06-25T04:10:49.592Z,92.96
2023-06-25T04:11:21.599Z,93.05
2023-06-25T04:11:53.543Z,93.05
2023-06-25T04:12:25.480Z,92.69
2023-06-25T04:12:57.581Z,92.72
2023-06-25T04:13:29.823Z,92.83
2023-06-25T04:14:01.928Z,92.97
2023-06-25T04:14:33.854Z,92.80
2023-06-25T04:15:06.304Z,92.82
2023-06-25T04:15:38.461Z,93.10
2023-06-25T04:16:10.636Z,93.37
2023-06-25T04:16:42.693Z,92.93
2023-06-25T04:17:14.617Z,92.90
2023-06-25T04:17:48.230Z,92.70
2023-06-25T04:18:20.380Z,93.07
2023-06-25T04:18:52.528Z,92.75
2023-06-25T04:19:24.443Z,92.96
2023-06-25T04:19:56.352Z,92.59
2023-06-25T04:20:29.251Z,92.66
2023-06-25T04:21:01.168Z,92.72
2023-06-25T04:21:33.089Z,92.92
2023-06-25T04:22:05.519Z,92.87
2023-06-25T04:22:37.461Z,93.15
2023-06-25T04:23:09.383Z,92.63
2023-06-25T04:23:41.313Z,92.39
2023-06-25T04:24:13.255Z,92.75
2023-06-25T04:24:45.211Z,92.10
2023-06-25T04:25:17.173Z,92.17
2023-06-25T04:25:49.399Z,92.15
2023-06-25T04:26:21.305Z,91.57
2023-06-25T04:26:53.320Z,91.54
2023-06-25T04:27:25.685Z,91.86
2023-06-25T04:27:57.717Z,91.81
2023-06-25T04:28:29.599Z,91.92
2023-06-25T04:29:01.569Z,91.55
2023-06-25T04:29:33.586Z,91.84
2023-06-25T04:30:06.208Z,91.21
2023-06-25T04:30:38.137Z,91.49
2023-06-25T04:31:10.043Z,90.65
2023-06-25T04:31:42.018Z,90.52
2023-06-25T04:32:14.107Z,90.73
2023-06-25T04:32:50.989Z,90.73
2023-06-25T04:33:23.048Z,90.68
2023-06-25T04:33:55.174Z,90.51
2023-06-25T04:34:27.325Z,90.48
2023-06-25T04:34:59.336Z,89.40
2023-06-25T04:35:32.511Z,89.75
2023-06-25T04:36:04.873Z,89.82
2023-06-25T04:36:36.795Z,89.95
2023-06-25T04:37:08.800Z,89.62
2023-06-25T04:37:40.785Z,89.24
2023-06-25T04:38:13.038Z,88.63
2023-06-25T04:38:44.989Z,88.71
2023-06-25T04:39:16.906Z,87.90
2023-06-25T04:39:48.821Z,87.49
2023-06-25T04:40:20.857Z,87.55
2023-06-25T04:40:52.902Z,87.43
2023-06-25T04:41:24.871Z,86.84
2023-06-25T04:41:56.920Z,86.76
2023-06-25T04:42:28.993Z,86.32
2023-06-25T04:43:00.930Z,86.16
2023-06-25T04:43:32.885Z,85.97
2023-06-25T04:44:05.203Z,86.38
2023-06-25T04:44:37.214Z,84.75
2023-06-25T04:45:09.742Z,84.54
2023-06-25T04:45:43.292Z,84.90
2023-06-25T04:46:15.304Z,84.42
2023-06-25T04:46:47.365Z,84.27
2023-06-25T04:47:19.463Z,83.75
2023-06-25T04:47:51.445Z,83.35
2023-06-25T04:48:23.388Z,84.20
2023-06-25T04:48:55.434Z,83.51
2023-06-25T04:49:27.530Z,83.65
2023-06-25T04:49:59.442Z,83.57
2023-06-25T04:50:31.358Z,83.36
2023-06-25T04:51:04.586Z,82.70
2023-06-25T04:51:36.619Z,82.95
2023-06-25T04:52:08.738Z,82.28
2023-06-25T04:52:40.792Z,81.85
2023-06-25T04:53:12.869Z,82.03
2023-06-25T04:53:44.896Z,82.25
2023-06-25T04:54:16.948Z,81.29
2023-06-25T04:54:49.307Z,81.45
2023-06-25T04:55:21.557Z,81.78
2023-06-25T04:55:53.535Z,81.40
2023-06-25T04:56:25.688Z,80.79
2023-06-25T04:56:57.709Z,80.90
2023-06-25T04:57:29.725Z,81.42
2023-06-25T04:58:01.724Z,80.99
2023-06-25T04:58:34.163Z,80.96
2023-06-25T04:59:06.194Z,80.77
2023-06-25T04:59:38.243Z,80.37
2023-06-25T05:00:10.830Z,80.67
2023-06-25T05:00:42.788Z,80.85
2023-06-25T05:01:14.798Z,80.43
2023-06-25T05:01:46.855Z,80.00
2023-06-25T05:02:18.940Z,79.78
2023-06-25T05:02:51.091Z,79.72
2023-06-25T05:03:23.230Z,79.83
2023-06-25T05:03:56.561Z,79.82
2023-06-25T05:04:28.714Z,79.57
2023-06-25T05:05:00.707Z,79.20
2023-06-25T05:05:33.741Z,79.50
2023-06-25T05:06:05.918Z,78.71
2023-06-25T05:06:37.831Z,79.23
2023-06-25T05:07:10.157Z,79.38
2023-06-25T05:07:42.169Z,78.94
2023-06-25T05:08:14.280Z,78.80
2023-06-25T05:08:46.415Z,79.16
2023-06-25T05:09:18.347Z,79.45
2023-06-25T05:09:50.343Z,79.63
2023-06-25T05:10:22.926Z,79.49
2023-06-25T05:10:55.007Z,79.00
2023-06-25T05:11:27.049Z,78.38
2023-06-25T05:11:59.116Z,77.83
2023-06-25T05:12:31.063Z,77.93
2023-06-25T05:13:05.318Z,77.90
2023-06-25T05:13:40.078Z,77.65
2023-06-25T05:14:13.305Z,77.76
2023-06-25T05:14:45.415Z,78.89
2023-06-25T05:15:17.953Z,78.42
2023-06-25T05:15:49.918Z,78.15
2023-06-25T05:16:21.972Z,78.56
2023-06-25T05:16:54.001Z,78.32
2023-06-25T05:17:27.566Z,77.77
2023-06-25T05:17:59.598Z,78.43
2023-06-25T05:18:31.898Z,77.72
2023-06-25T05:19:04.133Z,78.24
2023-06-25T05:19:36.240Z,78.37
2023-06-25T05:20:08.993Z,77.79
2023-06-25T05:20:41.147Z,77.57
2023-06-25T05:21:13.112Z,77.95
2023-06-25T05:21:45.194Z,77.27
2023-06-25T05:22:17.161Z,77.31
2023-06-25T05:22:49.094Z,77.68
2023-06-25T05:23:24.522Z,77.16
2023-06-25T05:24:04.892Z,77.17
2023-06-25T05:24:37.115Z,77.47
2023-06-25T05:25:09.855Z,77.20
2023-06-25T05:25:41.954Z,77.00
2023-06-25T05:26:13.905Z,77.36
2023-06-25T05:26:55.275Z,77.02
2023-06-25T05:27:27.270Z,76.74
2023-06-25T05:27:59.983Z,76.95
2023-06-25T05:28:32.807Z,77.09
2023-06-25T05:29:05.918Z,77.38
2023-06-25T05:29:37.882Z,76.53
2023-06-25T05:30:10.166Z,77.16
2023-06-25T05:30:42.204Z,76.18
2023-06-25T05:31:14.288Z,76.26
2023-06-25T05:31:47.572Z,75.52
2023-06-25T05:32:19.523Z,76.29
2023-06-25T05:32:51.488Z,75.91
2023-06-25T05:33:23.434Z,75.89
2023-06-25T05:33:55.592Z,75.92
2023-06-25T05:34:27.642Z,75.49
2023-06-25T05:34:59.602Z,76.00
2023-06-25T05:35:32.052Z,75.88
2023-06-25T05:36:04.624Z,75.55
2023-06-25T05:36:36.545Z,75.81
2023-06-25T05:37:09.117Z,75.86
2023-06-25T05:37:41.686Z,76.17
2023-06-25T05:38:13.678Z,76.24
2023-06-25T05:38:46.334Z,75.29
2023-06-25T05:39:18.310Z,76.07
2023-06-25T05:39:50.279Z,75.35
2023-06-25T05:40:22.240Z,75.83
2023-06-25T05:40:54.163Z,76.34
2023-06-25T05:41:26.081Z,75.73
2023-06-25T05:42:01.689Z,75.85
2023-06-25T05:42:33.663Z,76.53
2023-06-25T05:43:05.639Z,75.97
2023-06-25T05:43:37.621Z,75.37
2023-06-25T05:44:09.670Z,75.47
2023-06-25T05:44:41.618Z,75.33
2023-06-25T05:45:13.516Z,75.09
2023-06-25T05:45:45.553Z,74.85
2023-06-25T05:46:18.346Z,75.06
2023-06-25T05:46:50.368Z,74.83
2023-06-25T05:47:22.350Z,74.55
2023-06-25T05:47:54.340Z,74.86
2023-06-25T05:48:27.339Z,74.91
2023-06-25T05:48:59.252Z,74.61
2023-06-25T05:49:31.687Z,74.18
2023-06-25T05:50:04.394Z,74.69
2023-06-25T05:50:36.314Z,74.50
2023-06-25T05:51:08.486Z,74.49
2023-06-25T05:51:40.437Z,74.59
2023-06-25T05:52:12.392Z,74.65
2023-06-25T05:52:45.239Z,74.83
2023-06-25T05:53:17.230Z,74.26
2023-06-25T05:53:52.051Z,74.01
2023-06-25T05:54:24.034Z,74.05
2023-06-25T05:54:55.998Z,73.69
2023-06-25T05:55:31.619Z,74.29
2023-06-25T05:56:03.660Z,74.03
2023-06-25T05:56:35.663Z,73.85
2023-06-25T05:57:07.660Z,73.87
2023-06-25T05:57:39.647Z,74.28
2023-06-25T05:58:11.616Z,74.15
2023-06-25T05:58:43.785Z,73.21
2023-06-25T05:59:15.746Z,73.33
2023-06-25T05:59:47.660Z,73.42
2023-06-25T06:00:22.441Z,73.22
2023-06-25T06:00:54.519Z,73.51
2023-06-25T06:01:27.452Z,73.04
2023-06-25T06:01:59.498Z,72.96
2023-06-25T06:02:31.557Z,72.66
2023-06-25T06:03:03.572Z,72.38
2023-06-25T06:03:35.667Z,71.92
2023-06-25T06:04:07.676Z,71.57
2023-06-25T06:04:39.729Z,71.46
2023-06-25T06:05:11.638Z,72.09
2023-06-25T06:05:43.626Z,71.23
2023-06-25T06:06:15.540Z,71.53
2023-06-25T06:06:47.489Z,71.82
2023-06-25T06:07:19.517Z,71.74
2023-06-25T06:07:51.626Z,72.22
2023-06-25T06:08:23.862Z,72.00
2023-06-25T06:08:55.897Z,71.76
2023-06-25T06:09:28.249Z,72.03
2023-06-25T06:10:00.456Z,72.30
2023-06-25T06:10:32.701Z,72.12
2023-06-25T06:11:04.725Z,71.84
2023-06-25T06:11:36.687Z,71.84
2023-06-25T06:12:09.074Z,71.92
2023-06-25T06:12:40.996Z,71.72
2023-06-25T06:13:13.788Z,71.81
2023-06-25T06:13:46.007Z,72.45
2023-06-25T06:14:18.495Z,71.91
2023-06-25T06:14:52.834Z,71.86
2023-06-25T06:15:24.794Z,71.72
2023-06-25T06:15:56.780Z,72.24
2023-06-25T06:16:28.751Z,72.41
2023-06-25T06:17:00.764Z,72.26
2023-06-25T06:17:32.979Z,72.42
2023-06-25T06:18:04.934Z,72.36
2023-06-25T06:18:37.517Z,72.20
2023-06-25T06:19:12.910Z,72.46
2023-06-25T06:19:44.816Z,72.39
2023-06-25T06:20:16.705Z,72.62
2023-06-25T06:20:48.718Z,73.16
2023-06-25T06:21:20.675Z,72.89
2023-06-25T06:21:52.643Z,72.42
2023-06-25T06:22:24.596Z,72.42
2023-06-25T06:22:58.987Z,72.26
2023-06-25T06:23:30.937Z,72.13
2023-06-25T06:24:02.935Z,72.52
2023-06-25T06:24:34.879Z,71.51
2023-06-25T06:25:07.177Z,72.14
2023-06-25T06:25:39.402Z,72.20
2023-06-25T06:26:11.645Z,71.45
2023-06-25T06:26:43.663Z,71.79
2023-06-25T06:27:15.634Z,71.39
2023-06-25T06:27:47.950Z,71.98
2023-06-25T06:28:19.871Z,72.18
2023-06-25T06:28:51.827Z,71.87
2023-06-25T06:29:23.826Z,71.41
2023-06-25T06:29:55.770Z,71.37
2023-06-25T06:30:27.657Z,71.14
2023-06-25T06:30:59.614Z,71.64
2023-06-25T06:31:32.905Z,71.37
2023-06-25T06:32:05.518Z,71.14
2023-06-25T06:32:37.552Z,71.45
2023-06-25T06:33:09.575Z,71.60
2023-06-25T06:33:41.511Z,70.78
2023-06-25T06:34:13.472Z,71.28
2023-06-25T06:34:45.457Z,70.76
2023-06-25T06:35:17.422Z,71.79
2023-06-25T06:35:49.401Z,71.35
2023-06-25T06:36:21.375Z,70.77
2023-06-25T06:36:53.367Z,71.09
2023-06-25T06:37:25.295Z,71.09
2023-06-25T06:37:57.284Z,71.33
2023-06-25T06:38:29.327Z,71.00
2023-06-25T06:39:01.275Z,71.79
2023-06-25T06:39:34.200Z,71.69
2023-06-25T06:40:07.126Z,71.58
2023-06-25T06:40:39.093Z,70.84
2023-06-25T06:41:11.111Z,70.33
2023-06-25T06:41:43.005Z,70.67
2023-06-25T06:42:14.995Z,71.10
2023-06-25T06:42:46.957Z,70.70
2023-06-25T06:43:18.896Z,70.57
2023-06-25T06:43:50.855Z,70.32
2023-06-25T06:44:22.908Z,70.12
2023-06-25T06:44:54.931Z,70.50
2023-06-25T06:45:26.903Z,70.79
2023-06-25T06:45:58.844Z,70.49
2023-06-25T06:46:30.799Z,70.72
2023-06-25T06:47:02.763Z,69.81
2023-06-25T06:47:34.714Z,70.08
2023-06-25T06:48:06.913Z,69.13
2023-06-25T06:48:38.906Z,70.06
2023-06-25T06:49:11.898Z,69.28
2023-06-25T06:49:43.897Z,69.51
2023-06-25T06:50:15.943Z,68.69
2023-06-25T06:50:47.967Z,68.48
2023-06-25T06:51:19.930Z,68.82
2023-06-25T06:51:51.914Z,68.76
2023-06-25T06:52:26.624Z,68.84
2023-06-25T06:52:58.704Z,68.82
2023-06-25T06:53:30.670Z,68.38
2023-06-25T06:54:02.685Z,68.24
2023-06-25T06:54:34.621Z,69.04
2023-06-25T06:55:07.054Z,68.74
2023-06-25T06:55:39.165Z,68.74
2023-06-25T06:56:11.225Z,69.39
2023-06-25T06:56:43.152Z,68.83
2023-06-25T06:57:15.144Z,68.52
2023-06-25T06:57:48.327Z,68.15
2023-06-25T06:58:20.291Z,68.18
2023-06-25T06:58:52.281Z,67.90
2023-06-25T06:59:24.165Z,67.55
2023-06-25T06:59:56.114Z,67.98
2023-06-25T07:00:28.192Z,67.02